createdAt,value
2022-11-02T00:00:00.289Z,24.45
2022-11-02T00:04:05.000Z,20.05
2022-11-02T00:08:08.180Z,19.67
2022-11-02T00:12:11.800Z,22.35
2022-11-02T00:16:18.406Z,25.85
2022-11-02T00:20:23.574Z,25.25
2022-11-02T00:24:26.732Z,25.83
2022-11-02T00:28:30.231Z,24.05
2022-11-02T00:32:33.459Z,19.83
2022-11-02T00:36:38.279Z,18.17
2022-11-02T00:40:41.251Z,25.83
2022-11-02T00:44:44.832Z,26.73
2022-11-02T00:48:47.902Z,19.70
2022-11-02T00:52:53.004Z,18.58
2022-11-02T00:56:56.129Z,19.08
2022-11-02T01:00:59.921Z,18.35
2022-11-02T01:05:03.557Z,22.63
2022-11-02T01:09:08.696Z,24.00
2022-11-02T01:13:11.989Z,22.20
2022-11-02T01:17:17.157Z,23.65
2022-11-02T01:21:20.712Z,22.08
2022-11-02T01:25:25.293Z,18.00
2022-11-02T01:29:28.808Z,25.50
2022-11-02T01:33:31.839Z,28.55
2022-11-02T01:37:35.818Z,29.10
2022-11-02T01:41:40.252Z,25.35
2022-11-02T01:45:43.788Z,24.40
2022-11-02T01:49:50.212Z,20.80
2022-11-02T01:53:56.225Z,30.55
2022-11-02T01:58:04.853Z,18.83
2022-11-02T02:02:17.199Z,20.92
2022-11-02T02:06:20.480Z,23.58
2022-11-02T02:10:24.012Z,26.27
2022-11-02T02:14:29.337Z,23.70
2022-11-02T02:18:38.955Z,21.48
2022-11-02T02:23:08.063Z,23.67
2022-11-02T02:27:17.310Z,27.20
2022-11-02T02:31:31.810Z,21.08
2022-11-02T02:35:41.224Z,23.67
2022-11-02T02:39:52.100Z,19.35
2022-11-02T02:43:57.549Z,24.30
2022-11-02T02:48:05.262Z,26.35
2022-11-02T02:52:09.664Z,19.20
2022-11-02T02:56:15.579Z,25.35
2022-11-02T03:00:20.059Z,21.90
2022-11-02T03:04:25.280Z,24.33
2022-11-02T03:08:28.468Z,27.10
2022-11-02T03:12:41.161Z,27.30
2022-11-02T03:17:04.481Z,30.77
2022-11-02T03:21:21.732Z,30.52
2022-11-02T03:25:31.140Z,30.40
2022-11-02T03:29:42.234Z,28.35
2022-11-02T03:33:51.573Z,25.50
2022-11-02T03:38:02.773Z,31.30
2022-11-02T03:42:08.442Z,25.05
2022-11-02T03:50:24.881Z,28.75
2022-11-02T03:54:42.289Z,27.15
2022-11-02T03:58:45.264Z,31.20
2022-11-02T04:02:51.107Z,27.23
2022-11-02T04:06:54.988Z,25.88
2022-11-02T04:11:17.221Z,19.95
2022-11-02T04:15:20.693Z,27.27
2022-11-02T04:19:28.560Z,27.35
2022-11-02T04:23:49.278Z,31.83
2022-11-02T04:27:54.615Z,22.52
2022-11-02T04:31:58.993Z,34.88
2022-11-02T04:36:03.154Z,28.45
2022-11-02T04:40:07.345Z,26.85
2022-11-02T04:44:13.379Z,32.67
2022-11-02T04:48:16.719Z,33.67
2022-11-02T04:52:20.246Z,30.83
2022-11-02T04:56:23.708Z,38.58
2022-11-02T05:00:28.784Z,31.70
2022-11-02T05:04:31.720Z,34.60
2022-11-02T05:08:35.343Z,29.77
2022-11-02T05:12:38.506Z,27.58
2022-11-02T05:16:43.368Z,27.45
2022-11-02T05:20:52.508Z,31.27
2022-11-02T05:24:56.078Z,27.45
2022-11-02T05:28:59.093Z,33.15
2022-11-02T05:33:04.882Z,23.92
2022-11-02T05:37:08.355Z,31.02
2022-11-02T05:41:11.859Z,26.45
2022-11-02T05:45:15.008Z,28.13
2022-11-02T05:49:20.257Z,24.45
2022-11-02T05:53:23.301Z,31.77
2022-11-02T05:57:26.809Z,19.63
2022-11-02T06:01:31.663Z,30.88
2022-11-02T06:05:36.557Z,32.92
2022-11-02T06:09:40.464Z,27.83
2022-11-02T06:13:44.249Z,27.45
2022-11-02T06:17:47.903Z,25.95
2022-11-02T06:21:52.778Z,27.05
2022-11-02T06:25:57.350Z,17.83
2022-11-02T06:30:00.771Z,15.90
2022-11-02T06:34:03.920Z,17.63
2022-11-02T06:38:08.862Z,26.08
2022-11-02T06:42:11.916Z,28.88
2022-11-02T06:46:15.571Z,18.05
2022-11-02T06:50:21.538Z,18.67
2022-11-02T06:54:26.653Z,22.33
2022-11-02T06:58:29.962Z,24.85
2022-11-02T07:02:33.044Z,18.63
2022-11-02T07:06:36.359Z,20.30
2022-11-02T07:10:41.869Z,19.27
2022-11-02T07:14:45.267Z,28.27
2022-11-02T07:18:48.353Z,24.23
2022-11-02T07:22:55.870Z,20.63
2022-11-02T07:27:00.384Z,14.48
2022-11-02T07:31:03.897Z,18.30
2022-11-02T07:35:08.197Z,19.52
2022-11-02T07:39:12.046Z,26.75
2022-11-02T07:43:16.487Z,18.23
2022-11-02T07:47:20.084Z,19.73
2022-11-02T07:51:23.603Z,15.95
2022-11-02T07:55:29.667Z,13.30
2022-11-02T07:59:34.898Z,15.35
2022-11-02T08:03:37.853Z,12.60
2022-11-02T08:07:41.278Z,12.45
2022-11-02T08:11:44.298Z,13.45
2022-11-02T08:15:52.147Z,16.70
2022-11-02T08:19:55.699Z,10.43
2022-11-02T08:23:59.146Z,12.95
2022-11-02T08:28:03.156Z,11.90
2022-11-02T08:32:08.905Z,10.32
2022-11-02T08:36:13.439Z,13.52
2022-11-02T08:40:16.880Z,11.98
2022-11-02T08:44:20.477Z,13.07
2022-11-02T08:48:25.115Z,10.27
2022-11-02T08:52:28.766Z,9.55
2022-11-02T08:56:32.198Z,11.25
2022-11-02T09:00:36.409Z,8.85
2022-11-02T09:04:41.400Z,13.00
2022-11-02T09:08:44.450Z,13.88
2022-11-02T09:12:47.929Z,12.48
2022-11-02T09:16:51.330Z,11.63
2022-11-02T09:20:56.280Z,9.27
2022-11-02T09:24:59.856Z,14.40
2022-11-02T09:29:03.192Z,14.45
2022-11-02T09:33:07.751Z,9.82
2022-11-02T09:37:13.305Z,13.57
2022-11-02T09:41:25.618Z,10.93
2022-11-02T09:45:30.825Z,10.82
2022-11-02T09:53:52.533Z,15.35
2022-11-02T09:58:01.112Z,9.40
2022-11-02T10:02:15.938Z,9.20
2022-11-02T10:06:22.806Z,9.88
2022-11-02T10:10:35.358Z,9.93
2022-11-02T10:14:45.334Z,11.98
2022-11-02T10:18:50.973Z,13.88
2022-11-02T10:22:58.547Z,12.60
2022-11-02T10:27:13.849Z,9.57
2022-11-02T10:31:25.435Z,13.52
2022-11-02T10:35:57.795Z,9.35
2022-11-02T10:40:16.364Z,8.15
2022-11-02T10:44:33.539Z,9.43
2022-11-02T10:48:50.538Z,17.25
2022-11-02T10:52:54.224Z,14.10
2022-11-02T10:56:58.448Z,12.60
2022-11-02T11:01:09.959Z,9.95
2022-11-02T11:05:14.498Z,10.05
2022-11-02T11:09:19.973Z,12.30
2022-11-02T11:22:29.953Z,11.15
2022-11-02T11:26:33.456Z,6.85
2022-11-02T11:30:59.018Z,10.25
2022-11-02T11:35:08.310Z,11.88
2022-11-02T11:39:26.138Z,8.32
2022-11-02T11:43:35.621Z,15.80
2022-11-02T11:47:41.649Z,9.23
2022-11-02T11:51:52.592Z,8.05
2022-11-02T11:55:58.963Z,19.05
2022-11-02T12:00:05.427Z,12.15
2022-11-02T12:04:10.048Z,7.70
2022-11-02T12:08:42.342Z,6.25
2022-11-02T12:12:58.357Z,10.20
2022-11-02T12:17:23.804Z,5.32
2022-11-02T12:21:40.226Z,5.53
2022-11-02T12:25:59.185Z,4.85
2022-11-02T12:30:16.920Z,6.25
2022-11-02T12:34:52.861Z,4.38
2022-11-02T12:39:04.592Z,5.07
2022-11-02T12:43:28.412Z,2.17
2022-11-02T12:47:54.343Z,4.75
2022-11-02T12:52:08.858Z,1.88
2022-11-02T12:56:19.569Z,4.30
2022-11-02T13:00:25.402Z,5.88
2022-11-02T13:04:39.500Z,3.13
2022-11-02T13:08:48.809Z,3.40
2022-11-02T13:12:58.056Z,6.20
2022-11-02T13:17:08.505Z,4.63
2022-11-02T13:21:14.588Z,3.63
2022-11-02T13:25:23.639Z,4.22
2022-11-02T13:29:37.181Z,4.20
2022-11-02T13:33:48.890Z,2.45
2022-11-02T13:37:57.824Z,6.25
2022-11-02T13:42:22.052Z,3.45
2022-11-02T13:46:57.745Z,3.22
2022-11-02T13:51:08.191Z,3.08
2022-11-02T13:55:19.787Z,10.35
2022-11-02T13:59:27.086Z,3.45
2022-11-02T14:03:35.987Z,1.23
2022-11-02T14:07:43.150Z,2.15
2022-11-02T14:11:50.748Z,5.22
2022-11-02T14:15:54.371Z,2.83
2022-11-02T14:20:05.314Z,2.40
2022-11-02T14:24:42.250Z,2.97
2022-11-02T14:28:46.988Z,6.32
2022-11-02T14:33:03.835Z,3.20
2022-11-02T14:37:30.753Z,4.97
2022-11-02T14:42:01.603Z,7.07
2022-11-02T14:46:23.488Z,2.08
2022-11-02T14:50:27.736Z,4.00
2022-11-02T14:54:33.467Z,7.03
2022-11-02T14:58:40.837Z,1.20
2022-11-02T15:02:46.291Z,5.40
2022-11-02T15:06:55.908Z,5.07
2022-11-02T15:10:59.580Z,3.03
2022-11-02T15:15:22.201Z,1.95
2022-11-02T15:19:41.274Z,8.63
2022-11-02T15:23:48.492Z,2.85
2022-11-02T15:27:54.389Z,1.35
2022-11-02T15:31:59.594Z,2.78
2022-11-02T15:36:06.778Z,5.97
2022-11-02T15:40:21.450Z,1.30
2022-11-02T15:44:52.380Z,4.47
2022-11-02T15:49:02.263Z,3.08
2022-11-02T15:53:36.095Z,7.75
2022-11-02T15:57:49.909Z,3.25
2022-11-02T16:06:38.907Z,5.30
2022-11-02T16:10:43.877Z,2.13
2022-11-02T16:14:52.858Z,2.88
2022-11-02T16:18:58.283Z,5.32
2022-11-02T16:23:04.528Z,4.40
2022-11-02T16:27:14.436Z,1.83
2022-11-02T16:31:20.262Z,1.67
2022-11-02T16:35:23.673Z,2.50
2022-11-02T16:39:30.522Z,4.70
2022-11-02T16:43:37.842Z,3.67
2022-11-02T16:47:43.638Z,8.45
2022-11-02T16:51:51.132Z,7.05
2022-11-02T16:55:59.987Z,5.28
2022-11-02T17:00:08.074Z,8.85
2022-11-02T17:04:22.096Z,1.48
2022-11-02T17:08:31.760Z,4.10
2022-11-02T17:12:37.806Z,7.15
2022-11-02T17:17:01.033Z,6.18
2022-11-02T17:21:27.976Z,6.07
2022-11-02T17:25:33.128Z,5.25
2022-11-02T17:29:41.677Z,1.50
2022-11-02T17:33:46.748Z,1.33
2022-11-02T17:37:50.940Z,6.05
2022-11-02T17:42:13.606Z,4.15
2022-11-02T17:46:16.676Z,3.88
2022-11-02T17:50:21.958Z,8.98
2022-11-02T17:54:25.030Z,8.13
2022-11-02T17:58:28.490Z,3.55
2022-11-02T18:02:31.879Z,2.45
2022-11-02T18:06:37.195Z,2.63
2022-11-02T18:10:43.479Z,5.80
2022-11-02T18:14:47.336Z,7.22
2022-11-02T18:18:51.584Z,3.70
2022-11-02T18:22:58.008Z,4.00
2022-11-02T18:27:01.228Z,3.20
2022-11-02T18:31:07.438Z,4.85
2022-11-02T18:35:12.505Z,4.35
2022-11-02T18:39:17.670Z,6.72
2022-11-02T18:43:20.904Z,6.15
2022-11-02T18:47:25.281Z,4.68
2022-11-02T18:51:28.765Z,6.28
2022-11-02T18:55:33.427Z,4.93
2022-11-02T18:59:37.939Z,2.80
2022-11-02T19:03:41.005Z,2.70
2022-11-02T19:08:03.532Z,3.72
2022-11-02T19:12:11.000Z,2.53
2022-11-02T19:16:14.513Z,5.00
2022-11-02T19:20:18.796Z,2.47
2022-11-02T19:24:22.437Z,4.15
2022-11-02T19:28:27.588Z,7.72
2022-11-02T19:32:30.593Z,9.88
2022-11-02T19:36:34.425Z,5.10
2022-11-02T19:40:39.545Z,5.63
2022-11-02T19:44:44.453Z,2.97
2022-11-02T19:48:50.335Z,1.98
2022-11-02T19:52:53.610Z,2.95
2022-11-02T19:56:57.526Z,2.40
2022-11-02T20:01:09.928Z,14.77
2022-11-02T20:05:14.802Z,11.15
2022-11-02T20:09:20.942Z,8.85
2022-11-02T20:13:25.070Z,7.88
2022-11-02T20:17:38.166Z,7.32
2022-11-02T20:21:50.028Z,15.30
